createdAt,value
2022-09-07T00:01:56.779Z,96049.31
2022-09-07T00:04:58.418Z,96043.28
2022-09-07T00:08:00.872Z,96051.59
2022-09-07T00:11:05.619Z,96043.91
2022-09-07T00:14:07.793Z,96045.16
2022-09-07T00:17:09.390Z,96052.66
2022-09-07T00:20:12.899Z,96042.28
2022-09-07T00:23:14.522Z,96046.22
2022-09-07T00:26:18.772Z,96041.25
2022-09-07T00:29:20.491Z,96040.63
2022-09-07T00:32:22.100Z,96046.44
2022-09-07T00:35:23.785Z,96045.22
2022-09-07T00:38:25.449Z,96042.09
2022-09-07T00:41:27.092Z,96047.72
2022-09-07T00:44:44.010Z,96053.53
2022-09-07T00:48:03.899Z,96052.31
2022-09-07T00:51:09.749Z,96058.94
2022-09-07T00:54:21.570Z,96051.00
2022-09-07T00:57:23.420Z,96062.03
2022-09-07T01:00:25.690Z,96056.84
2022-09-07T01:03:31.113Z,96056.84
2022-09-07T01:06:36.218Z,96050.81
2022-09-07T01:09:39.645Z,96044.78
2022-09-07T01:12:41.284Z,96049.56
2022-09-07T01:16:10.082Z,96041.69
2022-09-07T01:19:26.648Z,96048.97
2022-09-07T01:23:05.753Z,96039.38
2022-09-07T01:26:19.624Z,96028.97
2022-09-07T01:29:37.709Z,96026.50
2022-09-07T01:33:06.391Z,96027.75
2022-09-07T01:36:31.835Z,96021.50
2022-09-07T01:39:49.749Z,96029.00
2022-09-07T01:42:57.309Z,96039.81
2022-09-07T01:46:03.245Z,96037.09
2022-09-07T01:49:11.918Z,96031.09
2022-09-07T01:52:42.425Z,96026.72
2022-09-07T01:55:55.270Z,96018.81
2022-09-07T01:59:04.443Z,96019.03
2022-09-07T02:02:11.720Z,96019.22
2022-09-07T02:05:30.209Z,96013.00
2022-09-07T02:08:42.100Z,96003.25
2022-09-07T02:11:47.482Z,96012.19
2022-09-07T02:14:54.332Z,96016.75
2022-09-07T02:18:01.199Z,96019.84
2022-09-07T02:21:05.950Z,96010.91
2022-09-07T02:24:17.302Z,96009.25
2022-09-07T02:27:25.432Z,96026.28
2022-09-07T02:30:27.188Z,96029.00
2022-09-07T02:33:29.668Z,96028.16
2022-09-07T02:36:37.171Z,96036.25
2022-09-07T02:39:39.030Z,96041.91
2022-09-07T02:42:41.978Z,96048.34
2022-09-07T02:46:02.566Z,96043.53
2022-09-07T02:49:22.934Z,96042.50
2022-09-07T02:52:51.920Z,96032.53
2022-09-07T02:55:53.489Z,96041.28
2022-09-07T02:59:11.990Z,96041.28
2022-09-07T03:02:28.989Z,96042.72
2022-09-07T03:05:43.006Z,96034.84
2022-09-07T03:08:50.731Z,96022.34
2022-09-07T03:11:52.783Z,96024.03
2022-09-07T03:14:54.465Z,96021.53
2022-09-07T03:17:56.146Z,96021.91
2022-09-07T03:20:57.880Z,96016.75
2022-09-07T03:23:59.532Z,96028.41
2022-09-07T03:27:01.590Z,96015.91
2022-09-07T03:30:06.319Z,96015.09
2022-09-07T03:33:07.964Z,96014.88
2022-09-07T03:36:09.780Z,96016.75
2022-09-07T03:39:13.954Z,96010.31
2022-09-07T03:42:15.602Z,96022.16
2022-09-07T03:45:18.099Z,96017.78
2022-09-07T03:48:19.778Z,96026.72
2022-09-07T03:51:21.383Z,96028.16
2022-09-07T03:54:23.095Z,96032.53
2022-09-07T03:57:24.780Z,96024.41
2022-09-07T04:00:26.424Z,96025.25
2022-09-07T04:03:28.047Z,96026.28
2022-09-07T04:06:30.066Z,96024.41
2022-09-07T04:09:31.878Z,96029.00
2022-09-07T04:12:33.530Z,96029.00
2022-09-07T04:15:35.449Z,96027.13
2022-09-07T04:18:37.478Z,96014.88
2022-09-07T04:21:39.232Z,96019.22
2022-09-07T04:24:40.862Z,96029.22
2022-09-07T04:27:42.576Z,96020.50
2022-09-07T04:30:44.794Z,96021.53
2022-09-07T04:33:48.341Z,96020.88
2022-09-07T04:36:50.402Z,96020.69
2022-09-07T04:39:52.128Z,96021.53
2022-09-07T04:42:53.782Z,96032.13
2022-09-07T04:45:55.685Z,96027.97
2022-09-07T04:48:59.688Z,96027.75
2022-09-07T04:52:01.440Z,96026.09
2022-09-07T04:55:04.071Z,96029.22
2022-09-07T04:58:05.699Z,96053.53
2022-09-07T05:01:08.130Z,96071.38
2022-09-07T05:04:09.852Z,96077.84
2022-09-07T05:07:11.518Z,96092.16
2022-09-07T05:10:13.261Z,96095.50
2022-09-07T05:13:14.916Z,96103.41
2022-09-07T05:16:19.462Z,96098.00
2022-09-07T05:19:21.122Z,96094.47
2022-09-07T05:22:23.179Z,96096.13
2022-09-07T05:25:26.552Z,96138.34
2022-09-07T05:28:31.235Z,96111.72
2022-09-07T05:31:33.396Z,96105.91
2022-09-07T05:34:35.410Z,96104.66
2022-09-07T05:37:37.036Z,96112.53
2022-09-07T05:40:40.881Z,96123.97
2022-09-07T05:47:05.524Z,96124.78
2022-09-07T05:50:09.004Z,96118.13
2022-09-07T05:53:10.639Z,96104.63
2022-09-07T05:56:12.851Z,96103.78
2022-09-07T05:59:14.638Z,96117.94
2022-09-07T06:02:16.653Z,96122.50
2022-09-07T06:05:18.397Z,96110.03
2022-09-07T06:08:20.043Z,96116.47
2022-09-07T06:11:23.625Z,96117.75
2022-09-07T06:14:25.297Z,96118.34
2022-09-07T06:17:29.161Z,96122.97
2022-09-07T06:20:31.165Z,96115.25
2022-09-07T06:23:34.092Z,96128.38
2022-09-07T06:26:35.689Z,96119.44
2022-09-07T06:29:37.326Z,96119.22
2022-09-07T06:35:43.607Z,96125.88
2022-09-07T06:38:46.911Z,96129.81
2022-09-07T06:42:03.874Z,96132.94
2022-09-07T06:45:06.878Z,96132.53
2022-09-07T06:48:08.493Z,96130.47
2022-09-07T06:51:19.143Z,96134.84
2022-09-07T06:57:42.387Z,96137.75
2022-09-07T07:00:44.332Z,96137.53
2022-09-07T07:03:46.560Z,96141.91
2022-09-07T07:06:48.278Z,96141.25
2022-09-07T07:09:50.086Z,96142.09
2022-09-07T07:12:53.164Z,96138.97
2022-09-07T07:16:05.377Z,96147.06
2022-09-07T07:19:07.160Z,96150.16
2022-09-07T07:22:45.549Z,96157.44
2022-09-07T07:25:31.041Z,96145.75
2022-09-07T07:31:55.185Z,96153.44
2022-09-07T07:34:57.057Z,96143.91
2022-09-07T07:44:44.494Z,96150.06
2022-09-07T07:47:51.211Z,96150.25
2022-09-07T07:51:09.889Z,96155.84
2022-09-07T07:54:13.800Z,96157.09
2022-09-07T07:57:16.931Z,96153.94
2022-09-07T08:00:37.158Z,96140.59
2022-09-07T08:03:43.721Z,96143.25
2022-09-07T08:06:45.361Z,96149.28
2022-09-07T08:09:48.096Z,96150.91
2022-09-07T08:12:53.325Z,96148.97
2022-09-07T08:15:59.413Z,96143.09
2022-09-07T08:19:01.963Z,96142.00
2022-09-07T08:22:03.998Z,96133.84
2022-09-07T08:25:07.176Z,96144.44
2022-09-07T08:28:08.770Z,96130.00
2022-09-07T08:31:13.768Z,96131.59
2022-09-07T08:34:15.515Z,96123.63
2022-09-07T08:37:17.128Z,96126.28
2022-09-07T08:40:19.502Z,96121.63
2022-09-07T08:43:40.093Z,96137.63
2022-09-07T08:47:04.512Z,96130.50
2022-09-07T08:50:18.539Z,96133.16
2022-09-07T08:53:22.043Z,96134.97
2022-09-07T08:56:33.669Z,96145.75
2022-09-07T08:59:46.645Z,96141.09
2022-09-07T09:03:28.694Z,96134.84
2022-09-07T09:06:20.229Z,96133.97
2022-09-07T09:09:34.229Z,96131.41
2022-09-07T09:13:06.655Z,96142.66
2022-09-07T09:16:54.787Z,96136.53
2022-09-07T09:20:17.288Z,96135.41
2022-09-07T09:23:20.522Z,96126.59
2022-09-07T09:26:28.274Z,96125.69
2022-09-07T09:29:29.851Z,96127.72
2022-09-07T09:32:33.311Z,96119.25
2022-09-07T09:35:36.279Z,96123.09
2022-09-07T09:38:40.365Z,96122.75
2022-09-07T09:41:42.496Z,96113.72
2022-09-07T09:44:45.473Z,96110.66
2022-09-07T09:47:51.075Z,96125.03
2022-09-07T09:54:42.867Z,96122.03
2022-09-07T10:01:26.075Z,96114.38
2022-09-07T10:04:35.120Z,96115.56
2022-09-07T10:07:36.755Z,96115.91
2022-09-07T10:10:38.383Z,96109.91
2022-09-07T10:13:52.594Z,96100.59
2022-09-07T10:16:55.743Z,96102.13
2022-09-07T10:20:21.629Z,96091.63
2022-09-07T10:23:24.244Z,96081.69
2022-09-07T10:26:28.849Z,96077.78
2022-09-07T10:29:36.054Z,96073.19
2022-09-07T10:32:58.402Z,96077.00
2022-09-07T10:36:10.896Z,96068.69
2022-09-07T10:39:17.560Z,96052.44
2022-09-07T10:42:32.902Z,96056.22
2022-09-07T10:45:53.006Z,96046.75
2022-09-07T10:49:09.633Z,96041.50
2022-09-07T10:52:22.591Z,96037.31
2022-09-07T10:55:38.071Z,96039.09
2022-09-07T10:59:03.485Z,96024.63
2022-09-07T11:02:39.288Z,96017.38
2022-09-07T11:06:20.305Z,96024.84
2022-09-07T11:10:12.785Z,96010.09
2022-09-07T11:13:19.538Z,96014.63
2022-09-07T11:19:56.645Z,96006.34
2022-09-07T11:23:15.645Z,95997.53
2022-09-07T11:26:37.335Z,95992.75
2022-09-07T11:29:54.864Z,95990.59
2022-09-07T11:33:15.208Z,95981.69
2022-09-07T11:36:20.920Z,95984.50
2022-09-07T11:39:29.438Z,95988.94
2022-09-07T11:42:52.936Z,95989.09
2022-09-07T11:46:00.251Z,95995.44
2022-09-07T11:49:05.296Z,95987.56
2022-09-07T11:52:17.149Z,95996.09
2022-09-07T11:55:27.498Z,95993.19
2022-09-07T11:58:47.308Z,95985.06
2022-09-07T12:02:08.063Z,95984.06
2022-09-07T12:05:30.876Z,95988.63
2022-09-07T12:08:32.521Z,95983.47
2022-09-07T12:12:03.212Z,95985.47
2022-09-07T12:15:13.943Z,95989.56
2022-09-07T12:18:25.330Z,95985.59
2022-09-07T12:21:34.744Z,95981.94
2022-09-07T12:24:43.553Z,95978.22
2022-09-07T12:27:45.544Z,95978.81
2022-09-07T12:31:06.042Z,95968.22
2022-09-07T12:34:29.457Z,95964.75
2022-09-07T12:37:33.941Z,95963.41
2022-09-07T12:40:36.133Z,95962.13
2022-09-07T12:43:43.713Z,95946.31
2022-09-07T12:46:48.384Z,95947.19
2022-09-07T12:50:12.014Z,95943.94
2022-09-07T12:53:13.770Z,95944.81
2022-09-07T12:56:43.908Z,95947.56
2022-09-07T13:00:00.718Z,95943.75
2022-09-07T13:07:02.409Z,95943.75
2022-09-07T13:10:33.479Z,95942.41
2022-09-07T13:17:38.885Z,95928.53
2022-09-07T13:20:41.620Z,95922.03
2022-09-07T13:24:45.772Z,95921.00
2022-09-07T13:27:41.427Z,95912.78
2022-09-07T13:31:00.262Z,95904.13
2022-09-07T13:34:33.766Z,95896.19
2022-09-07T13:37:59.068Z,95906.09
2022-09-07T13:41:14.665Z,95902.63
2022-09-07T13:44:25.920Z,95899.44
2022-09-07T13:47:41.625Z,95900.28
2022-09-07T13:50:52.369Z,95890.72
2022-09-07T13:54:05.321Z,95897.06
2022-09-07T13:57:22.114Z,95892.16
2022-09-07T14:00:24.264Z,95896.00
2022-09-07T14:03:28.147Z,95899.06
2022-09-07T14:06:32.909Z,95894.44
2022-09-07T14:09:34.987Z,95892.81
2022-09-07T14:12:52.473Z,95878.91
2022-09-07T14:15:54.110Z,95872.47
2022-09-07T14:18:55.773Z,95867.31
2022-09-07T14:22:12.540Z,95872.03
2022-09-07T14:25:22.189Z,95872.31
2022-09-07T14:28:32.372Z,95859.75
2022-09-07T14:31:34.808Z,95858.19
2022-09-07T14:34:38.180Z,95862.63
2022-09-07T14:37:40.309Z,95856.91
2022-09-07T14:40:42.187Z,95855.28
2022-09-07T14:43:58.346Z,95851.50
2022-09-07T14:47:05.996Z,95848.75
2022-09-07T14:50:18.342Z,95846.84
2022-09-07T14:53:36.186Z,95840.50
2022-09-07T14:56:40.987Z,95842.94
2022-09-07T14:59:45.104Z,95834.88
2022-09-07T15:02:47.398Z,95825.72
2022-09-07T15:05:49.170Z,95829.53
2022-09-07T15:08:50.808Z,95827.03
2022-09-07T15:12:03.301Z,95821.28
2022-09-07T15:15:33.670Z,95818.84
2022-09-07T15:18:55.639Z,95815.88
2022-09-07T15:21:57.555Z,95814.22
2022-09-07T15:24:59.191Z,95813.66
2022-09-07T15:28:01.010Z,95809.81
2022-09-07T15:34:24.643Z,95820.06
2022-09-07T15:41:20.901Z,95818.47
2022-09-07T15:44:21.524Z,95817.72
2022-09-07T15:50:48.830Z,95819.63
2022-09-07T15:54:12.647Z,95821.78
2022-09-07T16:00:37.697Z,95814.66
2022-09-07T16:03:39.734Z,95821.53
2022-09-07T16:06:42.836Z,95822.66
2022-09-07T16:09:44.400Z,95822.13
2022-09-07T16:13:08.715Z,95813.88
2022-09-07T16:16:08.310Z,95804.84
2022-09-07T16:19:13.825Z,95796.91
2022-09-07T16:23:13.243Z,95788.91
2022-09-07T16:25:38.254Z,95788.34
2022-09-07T16:28:42.232Z,95780.09
2022-09-07T16:35:05.908Z,95792.84
2022-09-07T16:41:31.750Z,95789.06
2022-09-07T16:44:35.119Z,95776.66
2022-09-07T16:47:39.902Z,95766.97
2022-09-07T16:50:51.120Z,95763.59
2022-09-07T16:53:54.828Z,95763.47
2022-09-07T16:56:56.531Z,95758.44
2022-09-07T16:59:58.389Z,95749.03
2022-09-07T17:03:00.022Z,95752.97
2022-09-07T17:06:03.502Z,95752.00
2022-09-07T17:09:05.462Z,95745.81
2022-09-07T17:12:08.017Z,95760.44
2022-09-07T17:15:10.206Z,95749.34
2022-09-07T17:18:11.791Z,95750.81
2022-09-07T17:21:14.618Z,95747.16
2022-09-07T17:24:16.489Z,95754.88
2022-09-07T17:27:18.082Z,95745.72
2022-09-07T17:30:20.829Z,95748.81
2022-09-07T17:33:22.548Z,95737.22
2022-09-07T17:36:25.922Z,95738.75
2022-09-07T17:39:30.042Z,95740.03
2022-09-07T17:45:53.387Z,95736.97
2022-09-07T17:48:59.083Z,95727.00
2022-09-07T17:52:01.633Z,95733.34
2022-09-07T17:55:03.928Z,95738.06
2022-09-07T17:58:07.857Z,95722.38
2022-09-07T18:01:15.548Z,95723.53
2022-09-07T18:04:17.562Z,95716.50
2022-09-07T18:07:19.172Z,95714.38
2022-09-07T18:10:20.772Z,95718.00
2022-09-07T18:13:33.552Z,95722.66
2022-09-07T18:16:37.519Z,95724.38
2022-09-07T18:19:39.158Z,95724.16
2022-09-07T18:22:40.732Z,95731.03
2022-09-07T18:25:42.393Z,95734.41
2022-09-07T18:32:09.466Z,95738.78
2022-09-07T18:35:11.390Z,95735.84
2022-09-07T18:38:13.646Z,95741.41
2022-09-07T18:41:16.252Z,95739.31
2022-09-07T18:47:40.094Z,95741.66
2022-09-07T18:50:41.665Z,95737.41
2022-09-07T18:53:43.565Z,95738.38
2022-09-07T18:56:45.167Z,95735.16
2022-09-07T18:59:46.863Z,95736.09
2022-09-07T19:02:51.505Z,95741.38
2022-09-07T19:06:05.089Z,95749.00
2022-09-07T19:09:06.769Z,95749.13
2022-09-07T19:12:10.026Z,95750.88
2022-09-07T19:15:11.675Z,95748.88
2022-09-07T19:18:13.625Z,95753.94
2022-09-07T19:21:19.461Z,95759.00
2022-09-07T19:24:21.122Z,95770.53
2022-09-07T19:27:22.713Z,95762.88
2022-09-07T19:30:26.680Z,95766.88
2022-09-07T19:33:28.357Z,95760.84
2022-09-07T19:36:32.659Z,95756.72
2022-09-07T19:39:34.817Z,95760.94
2022-09-07T19:42:36.509Z,95759.31
2022-09-07T19:45:39.963Z,95754.09
2022-09-07T19:48:41.802Z,95758.31
2022-09-07T19:51:43.558Z,95752.31
2022-09-07T19:54:45.683Z,95754.19
2022-09-07T19:57:47.738Z,95744.41
2022-09-07T20:00:49.641Z,95741.09
2022-09-07T20:04:00.926Z,95745.06
2022-09-07T20:07:03.020Z,95739.31
2022-09-07T20:10:05.312Z,95743.06
2022-09-07T20:13:06.917Z,95731.38
2022-09-07T20:16:12.382Z,95719.09
2022-09-07T20:19:16.842Z,95712.63
2022-09-07T20:22:19.926Z,95712.88
2022-09-07T20:25:23.955Z,95702.28
2022-09-07T20:28:26.239Z,95696.84
2022-09-07T20:31:28.057Z,95691.66
2022-09-07T20:34:29.699Z,95682.06
2022-09-07T20:37:31.278Z,95680.19
2022-09-07T20:40:33.512Z,95679.63
2022-09-07T20:43:35.203Z,95677.38
2022-09-07T20:46:37.016Z,95679.63
2022-09-07T20:49:39.632Z,95682.56
2022-09-07T20:52:41.192Z,95681.72
2022-09-07T20:55:43.006Z,95676.31
2022-09-07T20:58:46.045Z,95670.88
2022-09-07T21:01:47.800Z,95669.22
2022-09-07T21:04:49.417Z,95666.06
2022-09-07T21:07:51.018Z,95661.09
2022-09-07T21:10:52.789Z,95661.09
2022-09-07T21:14:08.393Z,95663.59
2022-09-07T21:17:10.241Z,95664.63
2022-09-07T21:20:11.952Z,95667.56
2022-09-07T21:23:13.664Z,95652.56
2022-09-07T21:26:20.407Z,95654.25
2022-09-07T21:29:24.363Z,95655.06
2022-09-07T21:32:26.282Z,95645.06
2022-09-07T21:35:30.671Z,95648.81
2022-09-07T21:38:33.876Z,95655.91
2022-09-07T21:41:38.634Z,95677.97
2022-09-07T21:44:40.361Z,95692.94
2022-09-07T21:47:42.216Z,95718.75
2022-09-07T21:50:45.068Z,95764.03
2022-09-07T21:53:52.140Z,95776.84
2022-09-07T21:56:53.754Z,95780.38
2022-09-07T21:59:55.462Z,95786.47
2022-09-07T22:02:57.120Z,95813.25
2022-09-07T22:06:02.166Z,95841.91
2022-09-07T22:09:05.069Z,95839.88
2022-09-07T22:12:06.930Z,95849.06
2022-09-07T22:15:08.879Z,95843.56
2022-09-07T22:18:13.446Z,95837.19
2022-09-07T22:21:18.827Z,95839.06
2022-09-07T22:24:20.455Z,95816.91
2022-09-07T22:27:22.157Z,95802.63
2022-09-07T22:30:24.281Z,95805.81
2022-09-07T22:33:26.986Z,95789.00
2022-09-07T22:36:32.387Z,95783.22
2022-09-07T22:39:34.081Z,95792.19
2022-09-07T22:42:35.756Z,95798.66
2022-09-07T22:45:37.359Z,95802.63
2022-09-07T22:48:40.544Z,95784.41
2022-09-07T22:51:42.951Z,95792.75
2022-09-07T22:54:45.763Z,95778.44
2022-09-07T22:57:47.438Z,95775.97
2022-09-07T23:00:50.616Z,95789.03
2022-09-07T23:03:53.500Z,95784.09
2022-09-07T23:06:55.219Z,95753.38
2022-09-07T23:09:56.822Z,95738.25
2022-09-07T23:12:58.432Z,95727.00
2022-09-07T23:16:04.658Z,95719.97
2022-09-07T23:19:06.960Z,95715.44
2022-09-07T23:22:08.599Z,95705.50
2022-09-07T23:25:10.256Z,95694.72
2022-09-07T23:28:12.432Z,95687.00
2022-09-07T23:31:14.198Z,95688.69
2022-09-07T23:34:16.371Z,95699.28
2022-09-07T23:37:17.994Z,95705.75
2022-09-07T23:40:20.362Z,95717.56
2022-09-07T23:43:22.768Z,95728.75
2022-09-07T23:46:25.152Z,95738.53
2022-09-07T23:49:26.784Z,95745.78
2022-09-07T23:52:28.441Z,95747.06
2022-09-07T23:55:30.077Z,95725.06
2022-09-07T23:58:31.820Z,95698.91
